sensor_id;sensor_type;location;lat;lon;timestamp;P1;durP1;ratioP1;P2;durP2;ratioP2
10230;SDS011;62604;49.432;8.680;2023-04-15T00:01:14;3.83;;;2.80;;
10230;SDS011;62604;49.432;8.680;2023-04-15T00:03:43;3.77;;;3.00;;
10230;SDS011;62604;49.432;8.680;2023-04-15T00:06:13;3.00;;;2.67;;
10230;SDS011;62604;49.432;8.680;2023-04-15T00:08:40;3.53;;;2.70;;
10230;SDS011;62604;49.432;8.680;2023-04-15T00:11:09;3.00;;;2.80;;
10230;SDS011;62604;49.432;8.680;2023-04-15T00:13:40;2.50;;;2.30;;
10230;SDS011;62604;49.432;8.680;2023-04-15T00:16:08;3.53;;;2.83;;
10230;SDS011;62604;49.432;8.680;2023-04-15T00:18:35;3.83;;;2.77;;
10230;SDS011;62604;49.432;8.680;2023-04-15T00:21:03;3.93;;;2.37;;
10230;SDS011;62604;49.432;8.680;2023-04-15T00:23:34;3.17;;;2.87;;
10230;SDS011;62604;49.432;8.680;2023-04-15T00:26:01;5.00;;;2.70;;
10230;SDS011;62604;49.432;8.680;2023-04-15T00:28:28;3.40;;;3.10;;
10230;SDS011;62604;49.432;8.680;2023-04-15T00:30:56;2.60;;;2.50;;
10230;SDS011;62604;49.432;8.680;2023-04-15T00:33:23;2.90;;;2.70;;
10230;SDS011;62604;49.432;8.680;2023-04-15T00:35:50;3.20;;;2.90;;
10230;SDS011;62604;49.432;8.680;2023-04-15T00:38:17;3.20;;;3.00;;
10230;SDS011;62604;49.432;8.680;2023-04-15T00:40:46;3.87;;;3.07;;
10230;SDS011;62604;49.432;8.680;2023-04-15T00:43:14;4.37;;;2.90;;
10230;SDS011;62604;49.432;8.680;2023-04-15T00:45:43;3.00;;;2.80;;
10230;SDS011;62604;49.432;8.680;2023-04-15T00:48:11;3.63;;;2.80;;
10230;SDS011;62604;49.432;8.680;2023-04-15T00:50:38;3.67;;;2.60;;
10230;SDS011;62604;49.432;8.680;2023-04-15T00:53:05;5.67;;;3.30;;
10230;SDS011;62604;49.432;8.680;2023-04-15T00:55:33;5.00;;;3.57;;
10230;SDS011;62604;49.432;8.680;2023-04-15T00:58:02;3.83;;;3.07;;
10230;SDS011;62604;49.432;8.680;2023-04-15T01:00:29;3.97;;;3.03;;
10230;SDS011;62604;49.432;8.680;2023-04-15T01:02:56;2.97;;;2.77;;
10230;SDS011;62604;49.432;8.680;2023-04-15T01:05:23;2.77;;;2.50;;
10230;SDS011;62604;49.432;8.680;2023-04-15T01:07:51;2.87;;;2.67;;
10230;SDS011;62604;49.432;8.680;2023-04-15T01:10:18;4.00;;;2.63;;
10230;SDS011;62604;49.432;8.680;2023-04-15T01:12:45;5.23;;;2.63;;
10230;SDS011;62604;49.432;8.680;2023-04-15T01:15:22;4.20;;;3.10;;
10230;SDS011;62604;49.432;8.680;2023-04-15T01:17:54;3.10;;;2.90;;
10230;SDS011;62604;49.432;8.680;2023-04-15T01:20:22;3.33;;;2.80;;
10230;SDS011;62604;49.432;8.680;2023-04-15T01:22:50;3.77;;;3.10;;
10230;SDS011;62604;49.432;8.680;2023-04-15T01:25:18;6.83;;;3.40;;
10230;SDS011;62604;49.432;8.680;2023-04-15T01:27:57;3.00;;;2.80;;
10230;SDS011;62604;49.432;8.680;2023-04-15T01:30:24;3.43;;;2.73;;
10230;SDS011;62604;49.432;8.680;2023-04-15T01:32:51;3.40;;;3.10;;
10230;SDS011;62604;49.432;8.680;2023-04-15T01:35:20;3.13;;;2.77;;
10230;SDS011;62604;49.432;8.680;2023-04-15T01:37:48;3.10;;;2.80;;
10230;SDS011;62604;49.432;8.680;2023-04-15T01:40:19;3.40;;;3.00;;
10230;SDS011;62604;49.432;8.680;2023-04-15T01:42:48;2.97;;;2.67;;
10230;SDS011;62604;49.432;8.680;2023-04-15T01:45:16;2.67;;;2.47;;
10230;SDS011;62604;49.432;8.680;2023-04-15T01:47:44;2.80;;;2.60;;
10230;SDS011;62604;49.432;8.680;2023-04-15T01:50:11;2.90;;;2.70;;
10230;SDS011;62604;49.432;8.680;2023-04-15T01:52:38;2.70;;;2.50;;
10230;SDS011;62604;49.432;8.680;2023-04-15T01:55:06;4.47;;;2.70;;
10230;SDS011;62604;49.432;8.680;2023-04-15T01:57:33;2.73;;;2.30;;
10230;SDS011;62604;49.432;8.680;2023-04-15T02:00:02;2.77;;;2.27;;
10230;SDS011;62604;49.432;8.680;2023-04-15T02:02:31;2.33;;;2.20;;
10230;SDS011;62604;49.432;8.680;2023-04-15T02:05:00;2.67;;;2.40;;
10230;SDS011;62604;49.432;8.680;2023-04-15T02:07:34;2.33;;;2.13;;
10230;SDS011;62604;49.432;8.680;2023-04-15T02:10:02;2.50;;;2.30;;
10230;SDS011;62604;49.432;8.680;2023-04-15T02:12:29;2.70;;;2.50;;
10230;SDS011;62604;49.432;8.680;2023-04-15T02:14:56;3.27;;;2.27;;
10230;SDS011;62604;49.432;8.680;2023-04-15T02:17:24;11.70;;;10.90;;
10230;SDS011;62604;49.432;8.680;2023-04-15T02:19:51;12.90;;;11.87;;
10230;SDS011;62604;49.432;8.680;2023-04-15T02:22:20;12.40;;;11.30;;
10230;SDS011;62604;49.432;8.680;2023-04-15T02:24:47;10.93;;;10.13;;
10230;SDS011;62604;49.432;8.680;2023-04-15T02:27:16;10.90;;;10.20;;
10230;SDS011;62604;49.432;8.680;2023-04-15T02:29:47;12.03;;;11.13;;
10230;SDS011;62604;49.432;8.680;2023-04-15T02:32:15;4.83;;;4.53;;
10230;SDS011;62604;49.432;8.680;2023-04-15T02:34:44;4.17;;;3.87;;
10230;SDS011;62604;49.432;8.680;2023-04-15T02:37:12;3.23;;;2.93;;
10230;SDS011;62604;49.432;8.680;2023-04-15T02:39:39;3.37;;;2.87;;
10230;SDS011;62604;49.432;8.680;2023-04-15T02:42:06;3.07;;;2.30;;
10230;SDS011;62604;49.432;8.680;2023-04-15T02:44:32;5.43;;;2.37;;
10230;SDS011;62604;49.432;8.680;2023-04-15T02:47:00;2.57;;;2.37;;
10230;SDS011;62604;49.432;8.680;2023-04-15T02:49:28;2.70;;;2.40;;
10230;SDS011;62604;49.432;8.680;2023-04-15T02:52:05;10.93;;;10.13;;
10230;SDS011;62604;49.432;8.680;2023-04-15T02:54:32;10.53;;;9.83;;
10230;SDS011;62604;49.432;8.680;2023-04-15T02:56:59;10.83;;;10.13;;
10230;SDS011;62604;49.432;8.680;2023-04-15T02:59:26;2.73;;;2.53;;
10230;SDS011;62604;49.432;8.680;2023-04-15T03:01:53;2.27;;;2.07;;
10230;SDS011;62604;49.432;8.680;2023-04-15T03:04:26;3.80;;;2.13;;
10230;SDS011;62604;49.432;8.680;2023-04-15T03:06:54;3.03;;;2.17;;
10230;SDS011;62604;49.432;8.680;2023-04-15T03:09:22;4.10;;;3.90;;
10230;SDS011;62604;49.432;8.680;2023-04-15T03:11:49;11.27;;;10.67;;
10230;SDS011;62604;49.432;8.680;2023-04-15T03:14:20;11.97;;;11.17;;
10230;SDS011;62604;49.432;8.680;2023-04-15T03:16:46;11.23;;;10.23;;
10230;SDS011;62604;49.432;8.680;2023-04-15T03:19:14;10.83;;;10.17;;
10230;SDS011;62604;49.432;8.680;2023-04-15T03:21:41;11.30;;;10.30;;
10230;SDS011;62604;49.432;8.680;2023-04-15T03:24:09;11.07;;;10.37;;
10230;SDS011;62604;49.432;8.680;2023-04-15T03:26:37;10.87;;;10.07;;
10230;SDS011;62604;49.432;8.680;2023-04-15T03:29:04;10.80;;;10.10;;
10230;SDS011;62604;49.432;8.680;2023-04-15T03:31:31;11.27;;;10.57;;
10230;SDS011;62604;49.432;8.680;2023-04-15T03:33:59;10.40;;;9.80;;
10230;SDS011;62604;49.432;8.680;2023-04-15T03:36:27;11.47;;;10.67;;
10230;SDS011;62604;49.432;8.680;2023-04-15T03:38:57;11.30;;;10.60;;
10230;SDS011;62604;49.432;8.680;2023-04-15T03:41:24;10.63;;;9.93;;
10230;SDS011;62604;49.432;8.680;2023-04-15T03:43:53;11.13;;;10.23;;
10230;SDS011;62604;49.432;8.680;2023-04-15T03:46:21;10.70;;;10.00;;
10230;SDS011;62604;49.432;8.680;2023-04-15T03:48:49;10.77;;;10.07;;
10230;SDS011;62604;49.432;8.680;2023-04-15T03:51:16;11.00;;;10.30;;
10230;SDS011;62604;49.432;8.680;2023-04-15T03:53:43;11.20;;;10.50;;
10230;SDS011;62604;49.432;8.680;2023-04-15T03:56:11;11.10;;;10.30;;
10230;SDS011;62604;49.432;8.680;2023-04-15T03:58:38;10.50;;;9.80;;
10230;SDS011;62604;49.432;8.680;2023-04-15T04:01:07;10.90;;;10.20;;
10230;SDS011;62604;49.432;8.680;2023-04-15T04:03:34;11.20;;;10.37;;
10230;SDS011;62604;49.432;8.680;2023-04-15T04:06:01;11.23;;;10.33;;
10230;SDS011;62604;49.432;8.680;2023-04-15T04:08:30;11.50;;;10.70;;
10230;SDS011;62604;49.432;8.680;2023-04-15T04:10:56;11.50;;;10.70;;
10230;SDS011;62604;49.432;8.680;2023-04-15T04:13:23;12.03;;;10.77;;
10230;SDS011;62604;49.432;8.680;2023-04-15T04:15:50;11.23;;;10.40;;
10230;SDS011;62604;49.432;8.680;2023-04-15T04:18:21;11.60;;;10.70;;
10230;SDS011;62604;49.432;8.680;2023-04-15T04:20:48;10.93;;;10.13;;
10230;SDS011;62604;49.432;8.680;2023-04-15T04:23:15;11.23;;;10.43;;
10230;SDS011;62604;49.432;8.680;2023-04-15T04:25:43;11.10;;;10.40;;
10230;SDS011;62604;49.432;8.680;2023-04-15T04:28:10;11.73;;;10.83;;
10230;SDS011;62604;49.432;8.680;2023-04-15T04:30:37;11.70;;;10.90;;
10230;SDS011;62604;49.432;8.680;2023-04-15T04:33:04;11.67;;;10.80;;
10230;SDS011;62604;49.432;8.680;2023-04-15T04:35:33;10.37;;;9.67;;
10230;SDS011;62604;49.432;8.680;2023-04-15T04:38:01;11.50;;;10.60;;
10230;SDS011;62604;49.432;8.680;2023-04-15T04:40:29;11.33;;;10.53;;
10230;SDS011;62604;49.432;8.680;2023-04-15T04:42:56;11.67;;;10.70;;
10230;SDS011;62604;49.432;8.680;2023-04-15T04:45:22;11.47;;;10.67;;
10230;SDS011;62604;49.432;8.680;2023-04-15T04:47:49;11.60;;;10.80;;
10230;SDS011;62604;49.432;8.680;2023-04-15T04:50:16;12.30;;;11.33;;
10230;SDS011;62604;49.432;8.680;2023-04-15T04:52:44;11.50;;;10.70;;
10230;SDS011;62604;49.432;8.680;2023-04-15T04:55:11;11.23;;;10.33;;
10230;SDS011;62604;49.432;8.680;2023-04-15T04:57:39;10.97;;;10.20;;
10230;SDS011;62604;49.432;8.680;2023-04-15T05:00:07;11.33;;;10.53;;
10230;SDS011;62604;49.432;8.680;2023-04-15T06:26:36;12.43;;;11.50;;
10230;SDS011;62604;49.432;8.680;2023-04-15T06:29:06;11.97;;;11.17;;
10230;SDS011;62604;49.432;8.680;2023-04-15T06:31:38;12.73;;;11.73;;
10230;SDS011;62604;49.432;8.680;2023-04-15T06:34:06;12.50;;;11.47;;
10230;SDS011;62604;49.432;8.680;2023-04-15T06:36:33;12.57;;;11.67;;
10230;SDS011;62604;49.432;8.680;2023-04-15T06:39:00;11.50;;;10.60;;
10230;SDS011;62604;49.432;8.680;2023-04-15T06:41:27;12.50;;;11.53;;
10230;SDS011;62604;49.432;8.680;2023-04-15T06:43:56;12.07;;;11.27;;
10230;SDS011;62604;49.432;8.680;2023-04-15T06:46:23;11.83;;;11.03;;
10230;SDS011;62604;49.432;8.680;2023-04-15T06:48:50;12.63;;;11.67;;
10230;SDS011;62604;49.432;8.680;2023-04-15T06:51:18;12.20;;;11.17;;
10230;SDS011;62604;49.432;8.680;2023-04-15T06:53:45;12.50;;;11.60;;
10230;SDS011;62604;49.432;8.680;2023-04-15T06:56:17;12.30;;;11.37;;
10230;SDS011;62604;49.432;8.680;2023-04-15T06:58:44;12.40;;;11.50;;
10230;SDS011;62604;49.432;8.680;2023-04-15T07:01:15;12.27;;;11.47;;
10230;SDS011;62604;49.432;8.680;2023-04-15T07:03:43;12.17;;;11.27;;
10230;SDS011;62604;49.432;8.680;2023-04-15T07:06:10;11.93;;;11.13;;
10230;SDS011;62604;49.432;8.680;2023-04-15T07:08:38;12.60;;;11.60;;
10230;SDS011;62604;49.432;8.680;2023-04-15T07:11:07;13.17;;;12.17;;
10230;SDS011;62604;49.432;8.680;2023-04-15T07:13:36;12.77;;;11.73;;
10230;SDS011;62604;49.432;8.680;2023-04-15T07:16:05;12.83;;;11.63;;
10230;SDS011;62604;49.432;8.680;2023-04-15T07:18:35;13.07;;;11.90;;
10230;SDS011;62604;49.432;8.680;2023-04-15T07:21:04;12.10;;;11.20;;
10230;SDS011;62604;49.432;8.680;2023-04-15T07:23:32;12.70;;;11.80;;
10230;SDS011;62604;49.432;8.680;2023-04-15T07:26:00;13.07;;;12.07;;
10230;SDS011;62604;49.432;8.680;2023-04-15T07:28:30;13.03;;;12.13;;
10230;SDS011;62604;49.432;8.680;2023-04-15T07:30:58;13.90;;;12.70;;
10230;SDS011;62604;49.432;8.680;2023-04-15T07:33:27;12.97;;;11.80;;
10230;SDS011;62604;49.432;8.680;2023-04-15T07:35:58;12.27;;;11.47;;
10230;SDS011;62604;49.432;8.680;2023-04-15T07:38:26;13.00;;;11.80;;
10230;SDS011;62604;49.432;8.680;2023-04-15T07:40:53;12.70;;;11.80;;
10230;SDS011;62604;49.432;8.680;2023-04-15T07:43:22;12.93;;;11.93;;
10230;SDS011;62604;49.432;8.680;2023-04-15T07:45:49;13.00;;;11.83;;
10230;SDS011;62604;49.432;8.680;2023-04-15T07:48:19;13.10;;;11.97;;
10230;SDS011;62604;49.432;8.680;2023-04-15T07:50:47;12.87;;;11.90;;
10230;SDS011;62604;49.432;8.680;2023-04-15T07:53:16;13.80;;;12.40;;
10230;SDS011;62604;49.432;8.680;2023-04-15T07:55:45;15.40;;;13.17;;
10230;SDS011;62604;49.432;8.680;2023-04-15T07:58:13;14.20;;;12.90;;
10230;SDS011;62604;49.432;8.680;2023-04-15T08:00:42;14.48;;;13.27;;
10230;SDS011;62604;49.432;8.680;2023-04-15T08:03:10;13.80;;;12.75;;
10230;SDS011;62604;49.432;8.680;2023-04-15T08:05:37;13.98;;;12.88;;
10230;SDS011;62604;49.432;8.680;2023-04-15T08:08:04;14.45;;;13.23;;
10230;SDS011;62604;49.432;8.680;2023-04-15T08:10:34;14.15;;;13.10;;
10230;SDS011;62604;49.432;8.680;2023-04-15T08:13:01;14.13;;;12.98;;
10230;SDS011;62604;49.432;8.680;2023-04-15T08:15:30;13.63;;;12.63;;
10230;SDS011;62604;49.432;8.680;2023-04-15T08:17:57;14.18;;;13.07;;
10230;SDS011;62604;49.432;8.680;2023-04-15T08:20:25;13.40;;;12.38;;
10230;SDS011;62604;49.432;8.680;2023-04-15T08:22:55;14.07;;;12.98;;
10230;SDS011;62604;49.432;8.680;2023-04-15T08:25:30;14.50;;;13.20;;
10230;SDS011;62604;49.432;8.680;2023-04-15T08:28:04;13.95;;;12.95;;
10230;SDS011;62604;49.432;8.680;2023-04-15T08:30:32;13.13;;;12.23;;
10230;SDS011;62604;49.432;8.680;2023-04-15T08:32:59;14.10;;;13.00;;
10230;SDS011;62604;49.432;8.680;2023-04-15T08:35:28;14.10;;;12.90;;
10230;SDS011;62604;49.432;8.680;2023-04-15T08:37:56;14.82;;;13.73;;
10230;SDS011;62604;49.432;8.680;2023-04-15T08:40:24;13.98;;;12.93;;
10230;SDS011;62604;49.432;8.680;2023-04-15T08:43:11;14.70;;;13.25;;
10230;SDS011;62604;49.432;8.680;2023-04-15T08:45:46;13.88;;;12.88;;
10230;SDS011;62604;49.432;8.680;2023-04-15T08:48:15;14.60;;;13.40;;
10230;SDS011;62604;49.432;8.680;2023-04-15T08:50:44;15.00;;;13.70;;
10230;SDS011;62604;49.432;8.680;2023-04-15T08:53:12;14.20;;;13.10;;
10230;SDS011;62604;49.432;8.680;2023-04-15T08:55:42;14.13;;;13.13;;
10230;SDS011;62604;49.432;8.680;2023-04-15T08:58:13;15.30;;;13.68;;
10230;SDS011;62604;49.432;8.680;2023-04-15T09:00:41;14.85;;;13.80;;
10230;SDS011;62604;49.432;8.680;2023-04-15T09:03:08;14.15;;;13.13;;
10230;SDS011;62604;49.432;8.680;2023-04-15T09:05:37;15.23;;;14.02;;
10230;SDS011;62604;49.432;8.680;2023-04-15T09:08:04;14.98;;;13.88;;
10230;SDS011;62604;49.432;8.680;2023-04-15T09:10:31;14.65;;;13.45;;
10230;SDS011;62604;49.432;8.680;2023-04-15T09:13:00;14.20;;;13.10;;
10230;SDS011;62604;49.432;8.680;2023-04-15T09:15:30;14.15;;;12.88;;
10230;SDS011;62604;49.432;8.680;2023-04-15T09:18:00;14.55;;;13.45;;
10230;SDS011;62604;49.432;8.680;2023-04-15T09:20:28;14.57;;;13.48;;
10230;SDS011;62604;49.432;8.680;2023-04-15T09:22:56;14.85;;;13.52;;
10230;SDS011;62604;49.432;8.680;2023-04-15T09:25:26;14.35;;;13.25;;
10230;SDS011;62604;49.432;8.680;2023-04-15T09:27:59;14.40;;;13.20;;
10230;SDS011;62604;49.432;8.680;2023-04-15T09:30:27;13.82;;;12.82;;
10230;SDS011;62604;49.432;8.680;2023-04-15T09:32:58;14.75;;;13.30;;
10230;SDS011;62604;49.432;8.680;2023-04-15T09:35:32;14.77;;;13.63;;
10230;SDS011;62604;49.432;8.680;2023-04-15T09:38:01;14.77;;;13.57;;
10230;SDS011;62604;49.432;8.680;2023-04-15T09:40:30;14.13;;;13.13;;
10230;SDS011;62604;49.432;8.680;2023-04-15T09:43:01;14.50;;;13.40;;
10230;SDS011;62604;49.432;8.680;2023-04-15T09:45:30;14.27;;;13.18;;
10230;SDS011;62604;49.432;8.680;2023-04-15T09:48:13;13.88;;;12.77;;
10230;SDS011;62604;49.432;8.680;2023-04-15T09:50:42;13.65;;;12.65;;
10230;SDS011;62604;49.432;8.680;2023-04-15T09:53:10;14.77;;;13.30;;
10230;SDS011;62604;49.432;8.680;2023-04-15T09:55:42;14.07;;;12.98;;
10230;SDS011;62604;49.432;8.680;2023-04-15T09:58:16;14.05;;;13.05;;
10230;SDS011;62604;49.432;8.680;2023-04-15T10:00:46;14.05;;;12.95;;
10230;SDS011;62604;49.432;8.680;2023-04-15T10:03:17;14.07;;;12.88;;
10230;SDS011;62604;49.432;8.680;2023-04-15T10:05:48;14.07;;;13.00;;
10230;SDS011;62604;49.432;8.680;2023-04-15T10:08:16;14.25;;;13.15;;
10230;SDS011;62604;49.432;8.680;2023-04-15T10:10:45;13.93;;;12.73;;
10230;SDS011;62604;49.432;8.680;2023-04-15T10:13:13;13.68;;;12.68;;
10230;SDS011;62604;49.432;8.680;2023-04-15T10:15:42;14.38;;;12.82;;
10230;SDS011;62604;49.432;8.680;2023-04-15T10:18:14;13.95;;;12.95;;
10230;SDS011;62604;49.432;8.680;2023-04-15T10:20:47;14.02;;;12.93;;
10230;SDS011;62604;49.432;8.680;2023-04-15T10:23:14;14.55;;;13.35;;
10230;SDS011;62604;49.432;8.680;2023-04-15T10:25:43;14.50;;;13.40;;
10230;SDS011;62604;49.432;8.680;2023-04-15T10:28:12;14.48;;;13.38;;
10230;SDS011;62604;49.432;8.680;2023-04-15T10:30:42;14.45;;;13.35;;
10230;SDS011;62604;49.432;8.680;2023-04-15T10:33:11;14.70;;;13.50;;
10230;SDS011;62604;49.432;8.680;2023-04-15T10:35:42;14.35;;;13.25;;
10230;SDS011;62604;49.432;8.680;2023-04-15T10:41:12;14.57;;;13.43;;
10230;SDS011;62604;49.432;8.680;2023-04-15T10:43:44;14.13;;;13.13;;
10230;SDS011;62604;49.432;8.680;2023-04-15T10:46:16;14.25;;;13.15;;
10230;SDS011;62604;49.432;8.680;2023-04-15T10:49:00;14.07;;;13.07;;
10230;SDS011;62604;49.432;8.680;2023-04-15T10:51:36;13.90;;;12.80;;
10230;SDS011;62604;49.432;8.680;2023-04-15T10:54:08;14.40;;;13.10;;
10230;SDS011;62604;49.432;8.680;2023-04-15T10:56:40;13.82;;;12.77;;
10230;SDS011;62604;49.432;8.680;2023-04-15T10:59:09;13.98;;;12.98;;
10230;SDS011;62604;49.432;8.680;2023-04-15T11:07:38;13.68;;;12.70;;
10230;SDS011;62604;49.432;8.680;2023-04-15T11:13:19;13.02;;;12.10;;
10230;SDS011;62604;49.432;8.680;2023-04-15T11:15:49;13.35;;;12.45;;
10230;SDS011;62604;49.432;8.680;2023-04-15T11:18:21;13.13;;;12.13;;
10230;SDS011;62604;49.432;8.680;2023-04-15T11:20:49;12.77;;;11.88;;
10230;SDS011;62604;49.432;8.680;2023-04-15T11:23:28;13.05;;;11.88;;
10230;SDS011;62604;49.432;8.680;2023-04-15T11:26:01;12.70;;;11.60;;
10230;SDS011;62604;49.432;8.680;2023-04-15T11:28:36;13.30;;;12.20;;
10230;SDS011;62604;49.432;8.680;2023-04-15T11:31:05;12.30;;;11.30;;
10230;SDS011;62604;49.432;8.680;2023-04-15T11:33:36;13.02;;;11.75;;
10230;SDS011;62604;49.432;8.680;2023-04-15T11:36:12;12.35;;;11.52;;
10230;SDS011;62604;49.432;8.680;2023-04-15T11:38:50;12.23;;;11.43;;
10230;SDS011;62604;49.432;8.680;2023-04-15T11:41:19;13.18;;;11.95;;
10230;SDS011;62604;49.432;8.680;2023-04-15T11:43:47;12.60;;;11.68;;
10230;SDS011;62604;49.432;8.680;2023-04-15T11:46:15;12.70;;;11.80;;
10230;SDS011;62604;49.432;8.680;2023-04-15T11:48:44;12.10;;;11.30;;
10230;SDS011;62604;49.432;8.680;2023-04-15T11:51:12;12.30;;;11.40;;
10230;SDS011;62604;49.432;8.680;2023-04-15T11:53:42;12.20;;;11.15;;
10230;SDS011;62604;49.432;8.680;2023-04-15T11:56:16;12.35;;;11.45;;
10230;SDS011;62604;49.432;8.680;2023-04-15T11:58:45;12.07;;;11.27;;
10230;SDS011;62604;49.432;8.680;2023-04-15T12:01:14;12.68;;;11.57;;
10230;SDS011;62604;49.432;8.680;2023-04-15T12:03:43;12.68;;;11.77;;
10230;SDS011;62604;49.432;8.680;2023-04-15T12:06:14;12.45;;;11.55;;
10230;SDS011;62604;49.432;8.680;2023-04-15T12:08:57;12.68;;;11.77;;
10230;SDS011;62604;49.432;8.680;2023-04-15T12:11:29;12.20;;;11.40;;
10230;SDS011;62604;49.432;8.680;2023-04-15T12:13:58;12.50;;;11.60;;
10230;SDS011;62604;49.432;8.680;2023-04-15T12:16:30;12.23;;;11.32;;
10230;SDS011;62604;49.432;8.680;2023-04-15T12:19:08;12.77;;;11.88;;
10230;SDS011;62604;49.432;8.680;2023-04-15T12:21:40;12.40;;;11.60;;
10230;SDS011;62604;49.432;8.680;2023-04-15T12:24:12;12.32;;;11.43;;
10230;SDS011;62604;49.432;8.680;2023-04-15T12:26:43;12.50;;;11.60;;
10230;SDS011;62604;49.432;8.680;2023-04-15T12:29:11;12.30;;;11.40;;
10230;SDS011;62604;49.432;8.680;2023-04-15T12:31:50;11.95;;;11.15;;
10230;SDS011;62604;49.432;8.680;2023-04-15T12:34:24;11.90;;;11.10;;
10230;SDS011;62604;49.432;8.680;2023-04-15T12:36:53;12.02;;;11.23;;
10230;SDS011;62604;49.432;8.680;2023-04-15T12:39:24;12.40;;;11.50;;
10230;SDS011;62604;49.432;8.680;2023-04-15T12:41:52;12.10;;;11.30;;
10230;SDS011;62604;49.432;8.680;2023-04-15T12:44:21;12.10;;;11.30;;
10230;SDS011;62604;49.432;8.680;2023-04-15T12:46:50;12.32;;;11.52;;
10230;SDS011;62604;49.432;8.680;2023-04-15T12:49:18;11.98;;;11.07;;
10230;SDS011;62604;49.432;8.680;2023-04-15T12:51:47;12.00;;;11.10;;
10230;SDS011;62604;49.432;8.680;2023-04-15T12:54:15;11.90;;;11.00;;
10230;SDS011;62604;49.432;8.680;2023-04-15T12:56:44;11.70;;;10.90;;
10230;SDS011;62604;49.432;8.680;2023-04-15T12:59:12;11.88;;;11.07;;
10230;SDS011;62604;49.432;8.680;2023-04-15T13:01:43;12.00;;;11.20;;
10230;SDS011;62604;49.432;8.680;2023-04-15T13:04:12;11.88;;;11.07;;
10230;SDS011;62604;49.432;8.680;2023-04-15T13:06:44;11.75;;;10.95;;
10230;SDS011;62604;49.432;8.680;2023-04-15T13:09:11;11.80;;;11.00;;
10230;SDS011;62604;49.432;8.680;2023-04-15T13:11:38;12.30;;;11.07;;
10230;SDS011;62604;49.432;8.680;2023-04-15T13:14:08;12.15;;;11.15;;
10230;SDS011;62604;49.432;8.680;2023-04-15T13:16:38;11.77;;;11.00;;
10230;SDS011;62604;49.432;8.680;2023-04-15T13:19:05;11.85;;;10.95;;
10230;SDS011;62604;49.432;8.680;2023-04-15T13:21:33;11.88;;;11.07;;
10230;SDS011;62604;49.432;8.680;2023-04-15T13:24:01;11.80;;;11.00;;
10230;SDS011;62604;49.432;8.680;2023-04-15T13:26:31;11.60;;;10.80;;
10230;SDS011;62604;49.432;8.680;2023-04-15T13:29:05;11.50;;;10.80;;
10230;SDS011;62604;49.432;8.680;2023-04-15T13:31:48;11.63;;;10.82;;
10230;SDS011;62604;49.432;8.680;2023-04-15T13:34:29;11.88;;;10.98;;
10230;SDS011;62604;49.432;8.680;2023-04-15T13:36:56;11.80;;;11.00;;
10230;SDS011;62604;49.432;8.680;2023-04-15T13:39:24;11.80;;;10.75;;
10230;SDS011;62604;49.432;8.680;2023-04-15T13:41:52;12.18;;;11.27;;
10230;SDS011;62604;49.432;8.680;2023-04-15T13:44:21;11.60;;;10.80;;
10230;SDS011;62604;49.432;8.680;2023-04-15T13:46:52;11.85;;;10.98;;
10230;SDS011;62604;49.432;8.680;2023-04-15T13:49:20;11.68;;;10.88;;
10230;SDS011;62604;49.432;8.680;2023-04-15T13:51:48;11.67;;;10.87;;
10230;SDS011;62604;49.432;8.680;2023-04-15T13:54:18;11.97;;;11.17;;
10230;SDS011;62604;49.432;8.680;2023-04-15T13:56:45;11.93;;;11.13;;
10230;SDS011;62604;49.432;8.680;2023-04-15T13:59:12;11.60;;;10.80;;
10230;SDS011;62604;49.432;8.680;2023-04-15T14:01:40;11.70;;;10.90;;
10230;SDS011;62604;49.432;8.680;2023-04-15T14:04:12;11.63;;;10.83;;
10230;SDS011;62604;49.432;8.680;2023-04-15T14:06:41;11.30;;;10.60;;
10230;SDS011;62604;49.432;8.680;2023-04-15T14:09:08;11.50;;;10.80;;
10230;SDS011;62604;49.432;8.680;2023-04-15T14:11:39;12.20;;;11.20;;
10230;SDS011;62604;49.432;8.680;2023-04-15T14:14:13;11.83;;;10.93;;
10230;SDS011;62604;49.432;8.680;2023-04-15T14:16:41;11.50;;;10.70;;
10230;SDS011;62604;49.432;8.680;2023-04-15T14:19:08;11.60;;;10.90;;
10230;SDS011;62604;49.432;8.680;2023-04-15T14:21:37;11.43;;;10.67;;
10230;SDS011;62604;49.432;8.680;2023-04-15T14:24:04;11.90;;;11.10;;
10230;SDS011;62604;49.432;8.680;2023-04-15T14:26:32;12.33;;;11.43;;
10230;SDS011;62604;49.432;8.680;2023-04-15T14:28:59;11.97;;;11.17;;
10230;SDS011;62604;49.432;8.680;2023-04-15T14:31:28;11.70;;;10.90;;
10230;SDS011;62604;49.432;8.680;2023-04-15T14:33:58;12.00;;;11.20;;
10230;SDS011;62604;49.432;8.680;2023-04-15T14:36:25;11.80;;;11.00;;
10230;SDS011;62604;49.432;8.680;2023-04-15T14:38:58;12.10;;;11.23;;
10230;SDS011;62604;49.432;8.680;2023-04-15T14:41:28;11.90;;;11.10;;
10230;SDS011;62604;49.432;8.680;2023-04-15T14:43:55;11.83;;;10.90;;
10230;SDS011;62604;49.432;8.680;2023-04-15T14:46:22;11.70;;;10.90;;
10230;SDS011;62604;49.432;8.680;2023-04-15T14:48:50;11.50;;;10.70;;
10230;SDS011;62604;49.432;8.680;2023-04-15T14:51:18;11.60;;;10.80;;
10230;SDS011;62604;49.432;8.680;2023-04-15T14:53:47;11.40;;;10.70;;
10230;SDS011;62604;49.432;8.680;2023-04-15T14:56:16;11.33;;;10.63;;
10230;SDS011;62604;49.432;8.680;2023-04-15T14:58:43;11.33;;;10.63;;
10230;SDS011;62604;49.432;8.680;2023-04-15T15:01:10;11.57;;;10.73;;
10230;SDS011;62604;49.432;8.680;2023-04-15T15:03:39;11.57;;;10.77;;
10230;SDS011;62604;49.432;8.680;2023-04-15T15:06:06;11.43;;;10.73;;
10230;SDS011;62604;49.432;8.680;2023-04-15T15:08:33;11.53;;;10.80;;
10230;SDS011;62604;49.432;8.680;2023-04-15T15:11:01;11.17;;;10.47;;
10230;SDS011;62604;49.432;8.680;2023-04-15T15:13:30;10.90;;;10.20;;
10230;SDS011;62604;49.432;8.680;2023-04-15T15:15:58;11.27;;;10.47;;
10230;SDS011;62604;49.432;8.680;2023-04-15T15:18:30;11.27;;;10.37;;
10230;SDS011;62604;49.432;8.680;2023-04-15T15:20:57;11.30;;;10.60;;
10230;SDS011;62604;49.432;8.680;2023-04-15T15:23:25;10.83;;;10.13;;
10230;SDS011;62604;49.432;8.680;2023-04-15T15:25:52;11.27;;;10.50;;
10230;SDS011;62604;49.432;8.680;2023-04-15T15:28:20;6.00;;;5.70;;
10230;SDS011;62604;49.432;8.680;2023-04-15T15:30:52;5.83;;;5.43;;
10230;SDS011;62604;49.432;8.680;2023-04-15T15:33:20;5.40;;;5.10;;
10230;SDS011;62604;49.432;8.680;2023-04-15T15:35:49;4.90;;;4.70;;
10230;SDS011;62604;49.432;8.680;2023-04-15T15:38:16;4.57;;;4.37;;
10230;SDS011;62604;49.432;8.680;2023-04-15T15:40:43;4.50;;;4.30;;
10230;SDS011;62604;49.432;8.680;2023-04-15T15:43:10;4.30;;;4.00;;
10230;SDS011;62604;49.432;8.680;2023-04-15T15:45:38;4.20;;;4.00;;
10230;SDS011;62604;49.432;8.680;2023-04-15T15:48:08;3.93;;;3.73;;
10230;SDS011;62604;49.432;8.680;2023-04-15T15:50:36;3.70;;;3.50;;
10230;SDS011;62604;49.432;8.680;2023-04-15T15:53:03;3.73;;;3.53;;
10230;SDS011;62604;49.432;8.680;2023-04-15T15:55:31;3.10;;;3.00;;
10230;SDS011;62604;49.432;8.680;2023-04-15T15:57:58;3.20;;;3.00;;
10230;SDS011;62604;49.432;8.680;2023-04-15T16:00:27;3.60;;;3.10;;
10230;SDS011;62604;49.432;8.680;2023-04-15T16:02:57;3.13;;;2.93;;
10230;SDS011;62604;49.432;8.680;2023-04-15T16:05:31;3.03;;;2.83;;
10230;SDS011;62604;49.432;8.680;2023-04-15T16:07:58;2.70;;;2.50;;
10230;SDS011;62604;49.432;8.680;2023-04-15T16:10:25;2.50;;;2.30;;
10230;SDS011;62604;49.432;8.680;2023-04-15T16:12:53;2.33;;;2.23;;
10230;SDS011;62604;49.432;8.680;2023-04-15T16:15:21;2.37;;;2.17;;